Time;durP1;ratioP1;P1;durP2;ratioP2;P2;SDS_P1;SDS_P2;PMS_P1;PMS_P2;Temp;Humidity;BMP_temperature;BMP_pressure;BME280_temperature;BME280_humidity;BME280_pressure;Samples;Min_cycle;Max_cycle;Signal;HPM_P1;HPM_P2
2022/01/20 00:02:09;;;;;;;33.30;17.50;;;;;;;-2.01;80.64;99494.04;109350;1273;23706;-63
2022/01/20 00:04:48;;;;;;;34.50;18.20;;;;;;;-1.98;80.72;99494.92;109271;1273;139250;-63
2022/01/20 00:23:08;;;;;;;33.80;18.40;;;;;;;-1.94;80.70;99484.52;109378;1273;22523;-63
2022/01/20 00:26:32;;;;;;;32.80;17.40;;;;;;;-1.93;80.95;99462.45;109281;1273;23059;-62
2022/01/20 00:29:01;;;;;;;34.80;18.00;;;;;;;-1.92;80.84;99461.71;109295;1273;138774;-62
2022/01/20 00:31:39;;;;;;;36.50;17.50;;;;;;;-1.93;80.78;99460.39;109347;1273;23134;-64
2022/01/20 00:39:25;;;;;;;35.50;18.60;;;;;;;-1.89;81.18;99438.50;109358;1273;23448;-63
2022/01/20 00:41:54;;;;;;;34.30;16.50;;;;;;;-1.85;81.14;99434.70;109115;1274;138324;-63
2022/01/20 00:44:23;;;;;;;30.30;17.00;;;;;;;-1.84;81.24;99428.63;109297;1274;24609;-63
2022/01/20 00:46:51;;;;;;;33.50;19.00;;;;;;;-1.81;81.26;99429.40;109153;1273;138409;-62
2022/01/20 00:49:20;;;;;;;37.80;18.40;;;;;;;-1.80;81.28;99424.75;109270;1273;22570;-62
2022/01/20 00:51:47;;;;;;;38.00;20.10;;;;;;;-1.78;81.12;99419.48;109260;1273;22440;-62
2022/01/20 00:54:19;;;;;;;31.20;17.80;;;;;;;-1.79;81.25;99417.00;109132;1274;137741;-63
2022/01/20 00:56:47;;;;;;;37.80;19.60;;;;;;;-1.79;81.16;99409.56;109176;1274;22422;-64
2022/01/20 00:59:15;;;;;;;31.40;18.40;;;;;;;-1.80;81.39;99409.64;109189;1274;137539;-63
2022/01/20 01:01:44;;;;;;;33.80;18.50;;;;;;;-1.80;81.28;99407.17;109260;1273;23269;-64
2022/01/20 01:04:12;;;;;;;34.00;18.50;;;;;;;-1.80;81.50;99399.65;109265;1273;22627;-63
2022/01/20 01:09:22;;;;;;;35.00;17.10;;;;;;;-1.79;81.40;99397.21;109191;1274;23342;-64
2022/01/20 01:11:52;;;;;;;32.80;18.50;;;;;;;-1.76;81.51;99403.70;109137;1274;138445;-63
2022/01/20 01:14:22;;;;;;;36.80;19.00;;;;;;;-1.75;81.58;99399.31;109199;1274;23228;-64
2022/01/20 01:22:21;;;;;;;36.20;17.10;;;;;;;-1.70;81.69;99380.96;109211;1274;22453;-64
2022/01/20 01:24:51;;;;;;;33.30;16.70;;;;;;;-1.70;81.90;99372.73;109156;1274;139822;-65
2022/01/20 01:27:21;;;;;;;37.20;18.20;;;;;;;-1.69;81.67;99365.86;109250;1275;22446;-64
2022/01/20 01:32:54;;;;;;;35.50;17.80;;;;;;;-1.68;81.81;99368.35;109256;1274;22481;-64
2022/01/20 01:35:23;;;;;;;26.30;16.30;;;;;;;-1.68;81.77;99368.02;109130;1274;137854;-64
2022/01/20 01:40:25;;;;;;;35.60;19.50;;;;;;;-1.69;81.91;99356.16;109320;1273;22438;-61
2022/01/20 01:42:54;;;;;;;33.20;18.00;;;;;;;-1.68;81.66;99355.73;109073;1274;138447;-61
2022/01/20 01:45:29;;;;;;;37.30;17.50;;;;;;;-1.67;81.94;99350.78;109190;1274;22477;-60
2022/01/20 01:47:57;;;;;;;34.40;18.20;;;;;;;-1.65;81.98;99349.33;109106;1274;138305;-60
2022/01/20 01:50:25;;;;;;;30.80;17.00;;;;;;;-1.63;81.93;99346.31;109254;1274;22377;-60
2022/01/20 01:52:55;;;;;;;32.30;16.80;;;;;;;-1.63;81.90;99344.80;109126;1274;139688;-61
2022/01/20 01:55:23;;;;;;;37.30;19.20;;;;;;;-1.63;81.82;99344.76;109339;1273;22531;-60
2022/01/20 01:57:52;;;;;;;29.90;16.30;;;;;;;-1.62;81.94;99333.77;107341;1275;25354;-60
2022/01/20 02:00:22;;;;;;;28.20;15.10;;;;;;;-1.60;82.02;99328.95;104928;1277;137890;-60
2022/01/20 02:02:56;;;;;;;34.20;16.90;;;;;;;-1.58;82.03;99330.27;109380;1274;23332;-60
2022/01/20 02:05:46;;;;;;;26.20;15.30;;;;;;;-1.58;81.94;99327.60;109195;1273;140130;-60
2022/01/20 02:19:15;;;;;;;36.50;16.50;;;;;;;-1.63;81.87;99314.02;109252;1274;22516;-60
2022/01/20 02:21:52;;;;;;;29.90;16.80;;;;;;;-1.64;81.93;99308.02;109250;1274;23141;-61
2022/01/20 02:24:22;;;;;;;31.50;16.90;;;;;;;-1.64;82.05;99301.71;109071;1274;141018;-60
2022/01/20 02:26:50;;;;;;;25.70;15.20;;;;;;;-1.64;82.15;99295.84;109319;1274;24130;-60
2022/01/20 02:29:24;;;;;;;27.40;15.40;;;;;;;-1.63;82.08;99293.23;109317;1274;138957;-61
2022/01/20 02:31:56;;;;;;;32.80;15.40;;;;;;;-1.63;82.17;99285.34;109238;1274;22451;-61
2022/01/20 02:34:25;;;;;;;27.60;14.80;;;;;;;-1.61;82.35;99283.11;109329;1274;22805;-61
2022/01/20 02:36:52;;;;;;;26.40;14.60;;;;;;;-1.58;82.38;99279.80;109276;1271;139731;-61
2022/01/20 02:44:53;;;;;;;23.40;13.90;;;;;;;-1.50;82.31;99268.00;109290;1274;22494;-61
2022/01/20 02:47:27;;;;;;;23.80;14.70;;;;;;;-1.49;82.23;99267.15;109209;1274;137578;-61
2022/01/20 02:49:55;;;;;;;29.60;17.10;;;;;;;-1.48;82.32;99261.23;109402;1272;22536;-61
2022/01/20 02:52:23;;;;;;;27.70;16.50;;;;;;;-1.49;82.28;99253.33;109403;1273;22437;-60
2022/01/20 02:54:51;;;;;;;29.00;15.10;;;;;;;-1.50;82.20;99251.84;109250;1273;137892;-61
2022/01/20 02:57:19;;;;;;;26.20;14.90;;;;;;;-1.50;82.39;99247.93;109424;1274;22578;-61
2022/01/20 02:59:47;;;;;;;27.50;15.80;;;;;;;-1.49;82.11;99244.95;109246;1273;138155;-61
2022/01/20 03:02:15;;;;;;;23.00;14.30;;;;;;;-1.49;81.95;99246.15;109245;1274;22387;-60
2022/01/20 03:04:43;;;;;;;27.00;14.40;;;;;;;-1.47;82.20;99242.80;109361;1273;22452;-62
2022/01/20 03:07:32;;;;;;;23.70;13.60;;;;;;;-1.48;81.92;99240.20;109232;1274;138946;-60
2022/01/20 03:10:02;;;;;;;31.70;15.00;;;;;;;-1.48;81.97;99240.00;109436;1273;22956;-61
2022/01/20 03:12:30;;;;;;;28.30;14.10;;;;;;;-1.48;81.98;99237.70;109337;1273;138416;-61
2022/01/20 03:15:01;;;;;;;29.20;15.20;;;;;;;-1.47;82.06;99236.23;109289;1274;22498;-61
2022/01/20 03:17:30;;;;;;;29.40;15.20;;;;;;;-1.47;82.12;99229.08;109123;1274;138256;-61
2022/01/20 03:19:59;;;;;;;29.40;16.20;;;;;;;-1.49;81.94;99226.02;109316;1273;23267;-61
2022/01/20 03:22:27;;;;;;;29.30;16.40;;;;;;;-1.51;81.59;99220.76;109293;1274;23492;-61
2022/01/20 03:24:57;;;;;;;28.20;16.20;;;;;;;-1.53;81.65;99215.34;109219;1273;138290;-61
2022/01/20 03:27:25;;;;;;;23.30;15.20;;;;;;;-1.56;81.47;99207.73;109431;1272;22456;-61
2022/01/20 03:29:53;;;;;;;26.70;15.00;;;;;;;-1.61;81.50;99205.45;109285;1271;139287;-61
2022/01/20 03:32:21;;;;;;;30.80;17.20;;;;;;;-1.63;81.44;99203.11;109436;1273;22764;-61
2022/01/20 03:34:49;;;;;;;28.10;16.60;;;;;;;-1.67;81.50;99202.65;109307;1273;22516;-60
2022/01/20 03:37:17;;;;;;;25.40;16.90;;;;;;;-1.69;81.47;99198.67;109258;1273;139919;-60
2022/01/20 03:39:53;;;;;;;28.40;15.70;;;;;;;-1.73;81.34;99190.38;109348;1272;23420;-64
2022/01/20 03:42:21;;;;;;;30.10;16.60;;;;;;;-1.76;81.42;99185.22;109119;1274;139763;-64
2022/01/20 03:44:52;;;;;;;27.20;15.70;;;;;;;-1.78;81.33;99190.85;109275;1273;22507;-64
2022/01/20 03:47:23;;;;;;;30.70;15.30;;;;;;;-1.80;81.37;99192.30;109313;1273;139623;-64
2022/01/20 03:52:29;;;;;;;26.00;15.60;;;;;;;-1.86;81.36;99185.20;109380;1273;22556;-64
2022/01/20 03:54:57;;;;;;;28.50;16.30;;;;;;;-1.90;81.48;99181.10;109252;1273;138546;-64
2022/01/20 03:57:25;;;;;;;29.90;17.10;;;;;;;-1.93;81.50;99176.87;109421;1273;22484;-64
2022/01/20 03:59:53;;;;;;;31.20;17.00;;;;;;;-1.96;81.60;99173.61;109290;1272;137988;-64
2022/01/20 04:02:41;;;;;;;28.60;16.80;;;;;;;-1.99;81.55;99170.63;109377;1271;22461;-64
2022/01/20 04:05:16;;;;;;;29.10;16.50;;;;;;;-2.04;81.68;99162.90;109236;1273;138646;-64
2022/01/20 04:07:47;;;;;;;30.80;17.60;;;;;;;-2.07;81.61;99163.38;109386;1273;22538;-64
2022/01/20 04:10:15;;;;;;;28.80;17.70;;;;;;;-2.09;81.86;99162.11;109396;1273;22381;-64
2022/01/20 04:12:43;;;;;;;30.50;18.30;;;;;;;-2.14;81.72;99158.73;109100;1273;139019;-64
2022/01/20 04:15:15;;;;;;;36.00;18.50;;;;;;;-2.18;81.66;99156.02;109355;1272;22447;-64
2022/01/20 04:17:50;;;;;;;29.70;17.00;;;;;;;-2.20;82.03;99156.82;109321;1273;140283;-65
2022/01/20 04:20:18;;;;;;;27.30;16.90;;;;;;;-2.22;82.02;99146.36;109420;1272;23230;-65
2022/01/20 04:22:45;;;;;;;33.00;17.30;;;;;;;-2.21;82.09;99138.38;109357;1273;22485;-66
2022/01/20 04:25:13;;;;;;;28.60;15.60;;;;;;;-2.20;82.23;99131.60;109247;1273;138233;-64
2022/01/20 04:27:41;;;;;;;25.80;16.10;;;;;;;-2.21;82.13;99126.70;109332;1273;22480;-64
2022/01/20 04:30:12;;;;;;;27.10;16.30;;;;;;;-2.22;82.32;99129.61;109199;1272;139833;-64
2022/01/20 04:32:41;;;;;;;31.20;16.20;;;;;;;-2.23;82.35;99126.89;109346;1273;22546;-64
2022/01/20 04:35:09;;;;;;;28.40;16.80;;;;;;;-2.24;82.28;99128.84;109161;1274;22587;-64
2022/01/20 04:37:37;;;;;;;28.90;16.20;;;;;;;-2.26;82.23;99132.13;109179;1273;138582;-65
2022/01/20 04:40:05;;;;;;;27.00;16.10;;;;;;;-2.28;82.38;99122.17;109334;1273;22617;-64
2022/01/20 04:42:36;;;;;;;30.70;16.10;;;;;;;-2.29;82.36;99118.79;109189;1273;137801;-63
2022/01/20 04:45:09;;;;;;;28.30;16.50;;;;;;;-2.31;82.18;99119.44;109276;1273;23203;-64
2022/01/20 04:47:55;;;;;;;29.10;16.80;;;;;;;-2.33;82.32;99116.83;109268;1273;139319;-64
2022/01/20 04:58:43;;;;;;;32.40;18.00;;;;;;;-2.39;82.43;99099.77;109201;1273;22615;-63
2022/01/20 05:01:11;;;;;;;31.40;17.40;;;;;;;-2.41;82.22;99099.27;109147;1273;139288;-63
2022/01/20 05:04:03;;;;;;;29.20;17.40;;;;;;;-2.43;82.41;99095.91;109311;1273;22492;-63
2022/01/20 05:06:54;;;;;;;31.20;16.20;;;;;;;-2.44;82.43;99089.82;109196;1271;138556;-63
2022/01/20 05:09:22;;;;;;;31.20;18.70;;;;;;;-2.45;82.47;99089.61;109409;1272;23343;-64
2022/01/20 05:11:58;;;;;;;32.40;18.40;;;;;;;-2.49;82.27;99085.34;109094;1273;138334;-63
2022/01/20 05:14:27;;;;;;;34.40;17.40;;;;;;;-2.53;82.29;99081.11;109302;1273;23111;-63
2022/01/20 05:16:56;;;;;;;28.40;16.10;;;;;;;-2.56;82.21;99086.10;109295;1273;22271;-63
2022/01/20 05:19:25;;;;;;;29.30;16.80;;;;;;;-2.59;82.28;99079.05;109203;1273;138173;-63
2022/01/20 05:21:53;;;;;;;28.00;15.60;;;;;;;-2.61;82.26;99074.19;109400;1273;22489;-64
2022/01/20 05:24:26;;;;;;;26.00;14.50;;;;;;;-2.62;82.43;99075.86;109207;1273;138169;-63
2022/01/20 05:26:54;;;;;;;26.30;14.30;;;;;;;-2.63;82.39;99081.27;109327;1273;22439;-63
2022/01/20 05:29:23;;;;;;;26.10;14.00;;;;;;;-2.63;82.30;99074.90;109230;1273;22514;-63
2022/01/20 05:31:51;;;;;;;26.00;13.70;;;;;;;-2.64;82.43;99070.61;109182;1273;138357;-63
2022/01/20 05:34:19;;;;;;;22.10;12.10;;;;;;;-2.66;82.42;99066.90;109297;1273;23165;-63
2022/01/20 05:36:48;;;;;;;28.90;14.60;;;;;;;-2.66;82.30;99065.83;109165;1273;139301;-64
2022/01/20 05:39:16;;;;;;;24.90;13.40;;;;;;;-2.68;82.38;99059.65;109275;1273;22447;-64
2022/01/20 05:41:44;;;;;;;24.30;14.40;;;;;;;-2.68;82.21;99070.02;109243;1273;138216;-63
2022/01/20 05:44:23;;;;;;;24.30;13.40;;;;;;;-2.69;82.24;99066.36;109311;1273;22437;-63
2022/01/20 05:46:52;;;;;;;27.00;13.40;;;;;;;-2.69;82.09;99073.99;109302;1273;22946;-63
2022/01/20 05:49:43;;;;;;;23.00;14.30;;;;;;;-2.70;82.06;99075.61;109276;1272;138533;-63
2022/01/20 05:52:12;;;;;;;28.90;14.20;;;;;;;-2.72;81.97;99072.83;109357;1273;22539;-64
2022/01/20 05:54:40;;;;;;;25.30;14.30;;;;;;;-2.74;81.92;99068.17;109250;1273;139075;-63
2022/01/20 05:57:10;;;;;;;27.80;15.10;;;;;;;-2.74;81.91;99068.38;109428;1272;22864;-64
2022/01/20 05:59:43;;;;;;;34.40;15.90;;;;;;;-2.76;81.75;99064.46;109113;1273;139017;-63
2022/01/20 06:02:24;;;;;;;27.30;13.60;;;;;;;-2.77;81.71;99062.08;109320;1273;22847;-63
2022/01/20 06:04:52;;;;;;;24.30;13.70;;;;;;;-2.78;81.77;99057.91;109335;1273;22509;-64
2022/01/20 06:07:21;;;;;;;23.90;13.10;;;;;;;-2.79;81.78;99059.14;109098;1273;138297;-64
2022/01/20 06:09:49;;;;;;;22.20;13.10;;;;;;;-2.79;81.67;99055.02;109334;1273;22474;-63
2022/01/20 06:12:18;;;;;;;26.80;13.00;;;;;;;-2.78;81.71;99051.22;109239;1273;139830;-63
2022/01/20 06:14:46;;;;;;;26.20;13.10;;;;;;;-2.78;81.58;99040.20;109282;1272;23717;-64
2022/01/20 06:17:15;;;;;;;24.60;13.90;;;;;;;-2.78;81.61;99033.27;109405;1272;22425;-63
2022/01/20 06:19:45;;;;;;;26.00;14.60;;;;;;;-2.79;81.55;99030.13;109178;1273;137643;-63
2022/01/20 06:22:13;;;;;;;27.90;14.60;;;;;;;-2.80;81.38;99034.80;109347;1273;23402;-64
2022/01/20 06:24:41;;;;;;;26.30;14.50;;;;;;;-2.80;81.33;99040.08;109130;1273;138673;-63
2022/01/20 06:27:10;;;;;;;28.10;15.30;;;;;;;-2.80;81.33;99040.91;109230;1273;22462;-63
2022/01/20 06:29:38;;;;;;;28.20;16.20;;;;;;;-2.80;81.13;99043.98;109238;1273;22439;-63
2022/01/20 06:32:06;;;;;;;30.80;14.90;;;;;;;-2.81;81.17;99036.98;109182;1273;138114;-64
2022/01/20 06:34:35;;;;;;;27.40;15.20;;;;;;;-2.81;81.03;99036.55;109379;1272;22411;-65
2022/01/20 06:37:05;;;;;;;30.00;14.90;;;;;;;-2.79;80.91;99041.16;109075;1273;141162;-63
2022/01/20 06:39:34;;;;;;;25.00;13.50;;;;;;;-2.78;80.91;99033.55;109250;1273;22411;-60
2022/01/20 06:42:03;;;;;;;22.30;12.90;;;;;;;-2.75;80.77;99027.32;109142;1274;138526;-60
2022/01/20 06:44:32;;;;;;;24.90;12.30;;;;;;;-2.72;80.70;99018.43;109236;1274;22388;-61
2022/01/20 06:47:01;;;;;;;26.20;13.10;;;;;;;-2.68;80.55;99009.80;109325;1273;23643;-60
2022/01/20 06:49:33;;;;;;;29.90;14.30;;;;;;;-2.67;80.39;98999.98;109093;1273;137779;-60
2022/01/20 06:52:06;;;;;;;26.80;13.30;;;;;;;-2.65;80.15;98994.42;109294;1273;23320;-60
2022/01/20 06:54:35;;;;;;;25.40;13.70;;;;;;;-2.63;80.03;98992.27;109156;1271;139265;-60
2022/01/20 06:57:11;;;;;;;21.80;12.80;;;;;;;-2.63;79.80;98992.90;109227;1273;22620;-60
2022/01/20 06:59:39;;;;;;;24.80;13.40;;;;;;;-2.62;79.83;98992.46;109316;1273;23086;-60
2022/01/20 07:02:07;;;;;;;24.00;13.00;;;;;;;-2.60;79.55;98994.53;109143;1272;137580;-61
2022/01/20 07:04:37;;;;;;;22.00;13.10;;;;;;;-2.59;79.23;98983.90;109027;1273;22615;-60
2022/01/20 07:07:05;;;;;;;25.70;13.70;;;;;;;-2.59;79.17;98985.35;109222;1273;137584;-61
2022/01/20 07:09:33;;;;;;;26.80;13.30;;;;;;;-2.59;78.84;98985.10;109403;1272;23236;-60
2022/01/20 07:12:22;;;;;;;27.50;13.80;;;;;;;-2.57;78.93;98989.88;109171;1273;138713;-61
2022/01/20 07:14:50;;;;;;;23.90;12.50;;;;;;;-2.56;78.65;98987.60;109288;1273;22454;-62
2022/01/20 07:17:18;;;;;;;27.40;12.30;;;;;;;-2.54;78.48;98990.41;109323;1273;23371;-61
2022/01/20 07:19:50;;;;;;;24.70;13.80;;;;;;;-2.51;78.59;98988.23;109207;1273;138871;-61
2022/01/20 07:22:18;;;;;;;27.00;12.20;;;;;;;-2.47;78.43;98986.56;109278;1273;23249;-61
2022/01/20 07:24:49;;;;;;;26.00;13.40;;;;;;;-2.42;78.41;98982.78;109146;1273;138067;-61
2022/01/20 07:27:42;;;;;;;28.60;13.60;;;;;;;-2.36;78.36;98984.90;109219;1273;23323;-61
2022/01/20 07:30:31;;;;;;;25.00;13.10;;;;;;;-2.29;78.16;98991.51;109213;1273;138899;-61
2022/01/20 07:33:03;;;;;;;23.20;12.90;;;;;;;-2.24;78.01;98987.63;109305;1273;22508;-61
2022/01/20 07:35:35;;;;;;;24.50;13.10;;;;;;;-2.19;77.93;98991.39;109309;1273;22491;-61
2022/01/20 07:38:04;;;;;;;23.90;14.20;;;;;;;-2.13;77.76;98997.80;109208;1273;138403;-61
2022/01/20 07:40:33;;;;;;;23.60;14.30;;;;;;;-2.09;77.60;98994.11;109401;1273;22499;-63
2022/01/20 07:43:02;;;;;;;23.80;13.00;;;;;;;-2.02;77.35;99000.00;109338;1272;138695;-63
2022/01/20 07:45:46;;;;;;;27.00;14.90;;;;;;;-1.97;77.23;98993.48;109280;1271;22475;-64
2022/01/20 07:48:15;;;;;;;22.60;12.80;;;;;;;-1.91;77.15;98995.61;109188;1273;139631;-63
2022/01/20 07:50:43;;;;;;;26.20;13.40;;;;;;;-1.85;76.89;98989.09;109264;1273;22565;-64
2022/01/20 07:53:11;;;;;;;25.80;13.20;;;;;;;-1.78;76.66;98987.52;109287;1273;22274;-64
2022/01/20 07:55:39;;;;;;;23.90;11.90;;;;;;;-1.70;76.46;98976.80;109117;1273;141402;-64
2022/01/20 07:58:07;;;;;;;24.20;12.30;;;;;;;-1.62;76.09;98972.56;109190;1273;23704;-64
2022/01/20 08:00:41;;;;;;;26.90;12.70;;;;;;;-1.56;75.92;98963.69;109239;1273;138600;-63
2022/01/20 08:03:09;;;;;;;23.90;13.10;;;;;;;-1.51;75.67;98959.20;109361;1273;24469;-64
2022/01/20 08:05:49;;;;;;;22.80;12.50;;;;;;;-1.45;75.22;98952.39;109296;1273;138379;-62
2022/01/20 08:08:18;;;;;;;25.70;14.00;;;;;;;-1.41;74.87;98949.33;109400;1273;22443;-63
2022/01/20 08:10:56;;;;;;;24.10;13.40;;;;;;;-1.37;74.73;98945.25;109394;1273;23311;-63
2022/01/20 08:13:24;;;;;;;24.80;13.60;;;;;;;-1.33;74.72;98942.77;109205;1273;137802;-64
2022/01/20 08:15:52;;;;;;;26.90;13.20;;;;;;;-1.29;74.33;98951.33;109331;1273;22888;-63
2022/01/20 08:18:29;;;;;;;19.80;11.90;;;;;;;-1.25;74.26;98948.33;109198;1273;137948;-63
2022/01/20 08:20:57;;;;;;;19.40;11.70;;;;;;;-1.19;73.88;98952.44;109286;1273;22453;-64
2022/01/20 08:23:25;;;;;;;20.20;12.10;;;;;;;-1.14;73.59;98953.56;109247;1273;22458;-63
2022/01/20 08:25:53;;;;;;;27.40;12.60;;;;;;;-1.10;73.65;98955.23;109355;1273;138060;-63
2022/01/20 08:28:22;;;;;;;24.00;12.30;;;;;;;-1.05;73.27;98952.97;109350;1273;22470;-63
2022/01/20 08:30:50;;;;;;;30.40;12.20;;;;;;;-1.00;72.87;98952.86;109339;1272;138312;-63
2022/01/20 08:33:20;;;;;;;27.70;12.60;;;;;;;-0.95;72.86;98955.59;109353;1273;22452;-64
2022/01/20 08:36:07;;;;;;;19.80;12.50;;;;;;;-0.90;72.85;98956.79;109066;1274;138616;-62
2022/01/20 08:38:45;;;;;;;23.00;12.80;;;;;;;-0.84;72.65;98957.46;109261;1273;22536;-65
2022/01/20 08:41:13;;;;;;;23.70;13.20;;;;;;;-0.79;72.15;98958.94;109292;1273;23236;-62
2022/01/20 08:43:41;;;;;;;27.20;13.10;;;;;;;-0.73;72.32;98963.52;109142;1273;138288;-60
2022/01/20 08:46:19;;;;;;;23.40;11.90;;;;;;;-0.68;71.87;98952.55;109291;1273;22546;-59
2022/01/20 08:48:47;;;;;;;25.60;12.80;;;;;;;-0.63;71.82;98949.74;109324;1273;140203;-60
2022/01/20 08:51:33;;;;;;;28.20;12.80;;;;;;;-0.58;71.61;98942.89;109293;1273;22433;-60
2022/01/20 08:54:11;;;;;;;25.60;12.90;;;;;;;-0.53;71.48;98933.79;109269;1273;137694;-60
2022/01/20 08:59:12;;;;;;;29.20;14.50;;;;;;;-0.45;70.98;98928.11;102030;1310;545195;-60
2022/01/20 09:01:41;;;;;;;27.60;14.90;;;;;;;-0.44;70.94;98927.91;107940;1286;137184;-61
2022/01/20 09:04:09;;;;;;;24.00;13.50;;;;;;;-0.39;70.58;98923.21;107892;1287;23270;-60
2022/01/20 09:06:43;;;;;;;22.90;12.60;;;;;;;-0.37;70.46;98917.91;107872;1287;138201;-60
2022/01/20 09:09:22;;;;;;;23.00;12.90;;;;;;;-0.34;70.45;98911.26;107995;1287;23493;-61
2022/01/20 09:17:39;;;;;;;23.10;12.00;;;;;;;-0.20;70.21;98888.51;107550;1290;22501;-61
2022/01/20 09:20:08;;;;;;;25.60;12.60;;;;;;;-0.14;70.09;98879.40;107483;1290;137600;-61
2022/01/20 09:22:37;;;;;;;23.60;12.70;;;;;;;-0.08;70.13;98879.95;108677;1277;23139;-61
2022/01/20 09:25:06;;;;;;;20.30;12.00;;;;;;;-0.01;69.64;98874.77;108701;1280;137721;-61
2022/01/20 09:27:35;;;;;;;19.80;11.40;;;;;;;0.07;69.65;98868.90;108617;1280;23276;-61
2022/01/20 09:30:09;;;;;;;23.50;11.70;;;;;;;0.15;69.14;98865.52;108427;1280;137709;-60
2022/01/20 09:33:26;;;;;;;20.50;12.00;;;;;;;0.21;68.86;98857.39;108363;1270;22518;31
2022/01/20 09:35:56;;;;;;;21.60;12.00;;;;;;;0.30;68.39;98844.98;107788;1287;137556;-81
2022/01/20 09:38:24;;;;;;;23.00;12.20;;;;;;;0.35;68.23;98843.23;108056;1278;72053;-64
2022/01/20 09:40:52;;;;;;;21.00;12.00;;;;;;;0.41;68.24;98840.67;108316;1283;22431;-65
2022/01/20 09:43:20;;;;;;;19.80;11.00;;;;;;;0.41;67.74;98828.41;108255;1283;137689;-65
2022/01/20 09:45:50;;;;;;;22.70;12.80;;;;;;;0.50;67.54;98835.09;108199;1284;23721;-64
2022/01/20 09:48:19;;;;;;;18.20;11.30;;;;;;;0.53;67.40;98827.70;108262;1283;138623;-65
2022/01/20 09:51:19;;;;;;;18.60;10.70;;;;;;;0.56;67.13;98820.27;108115;1284;22536;-64
2022/01/20 09:54:01;;;;;;;27.20;12.20;;;;;;;0.57;67.40;98816.05;108124;1284;137619;-60
2022/01/20 09:56:44;;;;;;;16.20;11.10;;;;;;;0.63;67.14;98821.27;108250;1284;22578;-64
2022/01/20 09:59:14;;;;;;;19.70;11.70;;;;;;;0.66;66.93;98815.90;108297;1284;22423;-64
2022/01/20 10:01:44;;;;;;;22.50;12.40;;;;;;;0.68;66.78;98806.83;108089;1285;137061;-64
2022/01/20 10:04:23;;;;;;;19.90;11.30;;;;;;;0.71;66.63;98798.36;108291;1285;22494;-64
2022/01/20 10:06:56;;;;;;;24.50;12.60;;;;;;;0.74;66.67;98790.29;108124;1285;137326;-64
2022/01/20 10:09:36;;;;;;;27.70;12.90;;;;;;;0.77;66.47;98789.30;108143;1285;22431;-65
2022/01/20 10:12:15;;;;;;;27.20;14.70;;;;;;;0.81;66.52;98787.75;107908;1286;137811;-64
2022/01/20 10:15:02;;;;;;;21.50;13.40;;;;;;;0.84;66.11;98787.99;108260;1285;23829;-65
2022/01/20 10:17:48;;;;;;;19.30;11.90;;;;;;;0.87;66.07;98785.61;108147;1284;138891;-64
2022/01/20 10:20:22;;;;;;;23.90;12.30;;;;;;;0.89;65.87;98781.14;108239;1284;23581;-65
2022/01/20 10:22:57;;;;;;;21.40;12.20;;;;;;;0.93;65.61;98774.03;108153;1285;23307;-63
2022/01/20 10:25:45;;;;;;;22.20;13.30;;;;;;;0.95;65.57;98765.25;108296;1284;136999;-65
2022/01/20 10:28:20;;;;;;;20.00;11.60;;;;;;;0.96;65.80;98756.41;108384;1284;22455;-66
2022/01/20 10:30:55;;;;;;;22.30;13.30;;;;;;;0.97;65.55;98746.63;107999;1285;137191;-65
2022/01/20 10:33:23;;;;;;;32.90;15.40;;;;;;;0.97;65.51;98740.23;108183;1281;22434;-65
2022/01/20 10:35:52;;;;;;;26.80;14.60;;;;;;;1.01;65.50;98734.27;108168;1285;137766;-65
2022/01/20 10:38:29;;;;;;;;;;;;;;;1.04;65.30;98732.62;108217;1284;22706;-65
2022/01/20 10:41:00;;;;;;;27.70;14.60;;;;;;;1.06;65.25;98728.33;108164;1285;22461;-58
2022/01/20 10:43:34;;;;;;;22.50;13.00;;;;;;;1.09;65.21;98721.33;107893;1284;137444;-58
2022/01/20 10:46:11;;;;;;;25.20;13.60;;;;;;;1.07;65.11;98714.66;108156;1285;22452;-58
2022/01/20 10:48:39;;;;;;;24.80;12.30;;;;;;;1.12;65.06;98714.48;108027;1285;138165;-59
2022/01/20 10:51:15;;;;;;;29.70;14.30;;;;;;;1.14;65.09;98711.70;108273;1285;23173;-58
2022/01/20 10:53:44;;;;;;;24.00;13.50;;;;;;;1.16;64.93;98702.79;108259;1285;22414;-59
2022/01/20 10:56:12;;;;;;;22.20;13.00;;;;;;;1.18;65.15;98691.73;108131;1285;137420;-59
2022/01/20 10:58:40;;;;;;;21.60;12.20;;;;;;;1.19;65.44;98693.64;108122;1285;23710;-58
2022/01/20 11:01:18;;;;;;;22.90;13.40;;;;;;;1.23;65.05;98687.39;107991;1285;137664;-58
2022/01/20 11:03:46;;;;;;;23.70;12.90;;;;;;;1.25;64.98;98677.72;108076;1285;23530;-58
2022/01/20 11:06:19;;;;;;;23.60;13.20;;;;;;;1.27;64.92;98680.64;107947;1285;136990;-58
2022/01/20 11:08:54;;;;;;;23.30;13.00;;;;;;;1.28;65.03;98678.73;107794;1285;22446;-59
2022/01/20 11:11:34;;;;;;;22.10;13.20;;;;;;;1.32;64.99;98680.70;108071;1285;22441;-58
2022/01/20 11:14:08;;;;;;;28.00;14.70;;;;;;;1.34;64.83;98681.01;108162;1285;138819;-59
2022/01/20 11:16:38;;;;;;;24.50;14.60;;;;;;;1.37;65.06;98674.43;107890;1285;23354;-59
2022/01/20 11:19:17;;;;;;;24.80;13.10;;;;;;;1.40;65.22;98682.34;107938;1285;137311;-59
2022/01/20 11:21:45;;;;;;;29.20;15.40;;;;;;;1.45;65.02;98686.83;107900;1285;22625;-59
2022/01/20 11:24:18;;;;;;;26.10;14.60;;;;;;;1.49;65.12;98682.70;108073;1285;137138;-59
2022/01/20 11:27:05;;;;;;;28.50;14.50;;;;;;;1.53;65.18;98680.82;108095;1287;23188;-58
2022/01/20 11:29:56;;;;;;;28.80;14.70;;;;;;;1.54;64.98;98676.77;107891;1286;138933;-59
2022/01/20 11:32:39;;;;;;;27.50;14.30;;;;;;;1.55;64.90;98669.86;108008;1285;23128;-59
2022/01/20 11:35:18;;;;;;;28.80;14.30;;;;;;;1.57;64.99;98669.67;108226;1284;22525;-58
2022/01/20 11:37:57;;;;;;;21.40;13.10;;;;;;;1.61;64.92;98673.46;108190;1283;137415;-59
2022/01/20 11:40:25;;;;;;;22.90;12.70;;;;;;;1.63;65.04;98676.29;108357;1284;22611;-59
2022/01/20 11:42:57;;;;;;;22.40;13.30;;;;;;;1.64;64.94;98674.01;108165;1285;138107;-59
2022/01/20 11:45:28;;;;;;;22.50;13.80;;;;;;;1.68;65.11;98676.51;108233;1285;22494;-59
2022/01/20 11:48:10;;;;;;;24.90;12.70;;;;;;;1.70;65.25;98667.27;108159;1284;137635;-59
2022/01/20 11:50:39;;;;;;;23.40;12.50;;;;;;;1.71;65.07;98666.08;108246;1285;22471;-59
2022/01/20 11:53:17;;;;;;;21.10;12.50;;;;;;;1.71;65.14;98663.56;108114;1285;22442;-59
2022/01/20 11:55:47;;;;;;;19.60;11.70;;;;;;;1.68;65.29;98661.85;108146;1285;138943;-58
2022/01/20 11:58:16;;;;;;;24.40;12.90;;;;;;;1.70;65.43;98660.99;108255;1284;22523;-59
2022/01/20 12:00:44;;;;;;;22.90;13.00;;;;;;;1.69;65.34;98655.42;108023;1286;137806;-59
2022/01/20 12:03:14;;;;;;;21.30;12.70;;;;;;;1.68;65.64;98655.61;108175;1284;22419;-59
2022/01/20 12:05:59;;;;;;;21.20;12.40;;;;;;;1.68;65.61;98650.07;107984;1287;137502;-59
2022/01/20 12:08:36;;;;;;;21.20;12.00;;;;;;;1.67;65.55;98641.11;108152;1287;22489;-59
2022/01/20 12:11:08;;;;;;;18.80;11.20;;;;;;;1.66;65.74;98637.73;108157;1287;22471;-58
2022/01/20 12:13:45;;;;;;;21.00;11.70;;;;;;;1.63;65.75;98625.21;108037;1286;140002;-58
2022/01/20 12:16:23;;;;;;;20.30;12.80;;;;;;;1.65;65.92;98625.56;108247;1284;22591;-58
2022/01/20 12:18:52;;;;;;;22.60;12.70;;;;;;;1.67;65.92;98619.48;108129;1283;137419;-59
2022/01/20 12:21:20;;;;;;;25.40;13.40;;;;;;;1.69;66.35;98609.45;108210;1284;22649;-59
2022/01/20 12:23:49;;;;;;;23.70;11.60;;;;;;;1.69;66.26;98602.75;108127;1284;138841;-59
2022/01/20 12:26:16;;;;;;;23.20;13.10;;;;;;;1.70;66.31;98601.39;108222;1285;22676;-59
2022/01/20 12:28:45;;;;;;;26.40;14.20;;;;;;;1.70;66.22;98599.73;108229;1283;23867;-59
2022/01/20 12:31:14;;;;;;;27.60;13.30;;;;;;;1.72;66.18;98603.05;108166;1285;138308;-58
2022/01/20 12:33:46;;;;;;;23.00;12.70;;;;;;;1.74;66.30;98604.44;108351;1284;23493;-58
2022/01/20 12:36:15;;;;;;;23.80;13.30;;;;;;;1.76;66.36;98599.45;108253;1285;138255;-59
2022/01/20 12:38:47;;;;;;;26.90;13.80;;;;;;;1.79;66.34;98593.35;108190;1284;23778;-59
2022/01/20 12:41:16;;;;;;;23.60;13.60;;;;;;;1.80;66.28;98596.23;108246;1285;23285;-59
2022/01/20 12:43:58;;;;;;;25.10;15.40;;;;;;;1.81;66.15;98600.77;108044;1285;138592;-59